航空気象通報

ウインドサーファーのための航空気象通報による風予報です。

8/31-9/2の航空気象通報

2018年08月31日 23時00分14秒 | お天気
羽田空港
TAF RJTT 311106Z 3112/0118 07010KT 9999 FEW020 BKN040
BECMG 3118/3120 22012KT
BECMG 0103/0106 04012KT
TEMPO 0106/0109 4000 -TSRA BR FEW008 BKN015 FEW020CB
TEMPO 0109/0112 3000 TSRA BR FEW005 BKN008 FEW020CB
TEMPO 0112/0118 3000 SHRA BR FEW005 BKN008
日本時間31日21時-1日03時:070度から10ノットの風
03-05時:風が変化
05-12時:220度から12ノットの風
12-15時:風が変化
15時-2日03時:040度から12ノットの風

但し、1日15-21時の間:時々
但し、1日21時-2日03時の間:時々

静岡空港
TAF RJNS 311108Z 3112/0118 25012KT 8000 FEW008 BKN015
TEMPO 3112/3115 4000 SHRA BR FEW005 BKN008
TEMPO 3121/0100 3000 TSRA BR FEW005 BKN008 FEW015CB
日本時間31日21時-2日03時:250度から12ノットの風

但し、31日21-24時の間:時々
但し、1日06-09時の間:時々


福岡空港
TAF RJFF 311111Z 3112/0118 15006KT 9999 FEW015
TEMPO 3118/3121 3000 SHRA BR
TEMPO 3121/0103 2000 TSRA BR FEW003 SCT005 BKN008 FEW025CB
TEMPO 0103/0109 3000 -SHRA BR FEW003 SCT005 BKN008
日本時間31日21時-2日03時:150度から6ノットの風

但し、1日03-06時の間:時々
但し、1日06-12時の間:時々
但し、1日12-18時の間:時々

那覇空港
TAF ROAH 311107Z 3112/0118 14005KT 9999 FEW020
BECMG 0103/0106 31006KT
日本時間31日21時-1日12時:140度から12ノットの風
12-15時:風が変化
15時-2日03時:310度から6ノットの風


石垣空港
TAF ROIG 311109Z 3112/0118 07004KT 9999 FEW015 SCT025
日本時間31日21時-2日03時:070度から4ノットの風


マウイのカフルイ空港
PHOG 311120Z 3112/0112 05008KT P6SM VCSH FEW025 SCT050
FM312000 04016G24KT P6SM SCT050
FM010500 04012G20KT P6SM SCT050 AMD LTD TO VIS AND WIND TIL 311600
ハワイ時間31日02-10時:050度から8ノットの風
10-19時:040度から16ノット、突風24ノット
19時-1日02時:040度から12ノット、突風20ノット


サイパン空港
PGSN 311122Z 3112/0112 19010KT P6SM VCSH FEW017 SCT030
FM312300 17015KT P6SM VCSH SCT020 SCT120
マリアナ時間29日22時-30日09時:190度から10ノットの風
09-22時:170度から15ノットの風
コメント

8/29-8/31の航空気象通報

2018年08月29日 22時22分21秒 | お天気
羽田空港
TAF RJTT 291105Z 2912/3018 18006KT 8000 FEW008 BKN012
TEMPO 2915/2921 FEW005 BKN008
BECMG 3000/3003 18016KT
日本時間29日21時-30日09時:180度から6ノットの風
09-12時:風が変化
12時-31日03時:180度から16ノットの風


静岡空港
TAF RJNS 291106Z 2912/3018 25006KT 9999 FEW006 BKN012
TEMPO 2913/2921 FEW003 BKN005
日本時間29日21時-31日03時:250度から6ノットの風


福岡空港
TAF RJFF 291106Z 2912/3018 14005KT 9999 FEW020 SCT045
TEMPO 3003/3009 4000 TSRA BR FEW010 SCT020 FEW025CB BKN030
日本時間29日21時-31日03時:140度から5ノットの風

但し、30日12-18時の間:時々

那覇空港
TAF ROAH 291106Z 2912/3018 16005KT 9999 FEW020 SCT030
日本時間29日21時-31日03時:160度から5ノットの風


石垣空港
TAF ROIG 291107Z 2912/3018 17007KT 9999 FEW015 SCT025
BECMG 3012/3015 12005KT
日本時間29日21時-30日21時:170度から7ノットの風
21-24時:風が変化
31日00-03時:120度から5ノットの風


マウイのカフルイ空港
PHOG 291120Z 2912/3012 06012KT P6SM FEW025 SCT045
FM292000 06015G23KT P6SM FEW030 SCT060
FM300500 05010KT P6SM FEW025 SCT040 AMD LTD TO VIS AND WIND TIL 291600
ハワイ時間29日02-10時:060度から12ノットの風
10-19時:060度から15ノット、突風23ノット
19時-30日02時:050度から10ノットの風


サイパン空港
PGSN 291120Z 2912/3012 VRB05KT P6SM VCSH FEW016 SCT040
FM300100 33008KT P6SM VCSH FEW018 SCT025 BKN120
マリアナ時間29日22時-30日22時:風向不定5ノットの風

コメント

8/27-8/29の航空気象通報

2018年08月27日 23時09分26秒 | お天気
羽田空港
TAF AMD RJTT 271245Z 2712/2818 10010KT 8000 -SHRA FEW008 BKN020
TEMPO 2712/2715 -TSRA FEW008 BKN015 FEW020CB
BECMG 2715/2717 36010KT
TEMPO 2715/2721 FEW005 BKN008
BECMG 2803/2806 08012KT
BECMG 2812/2815 05010KT
日本時間27日21-24時:100度から10ノットの風
28日00-02時:風が変化
00-12時:360度から10ノットの風
12-15時:風が変化
15-21時:080度から12ノットの風
21-24時:風が変化
29日00-03時:050度から10ノットの風

但し、27日21-24時の間:時々

静岡空港
TAF RJNS 271113Z 2712/2818 32004KT 9999 FEW008 BKN012
TEMPO 2715/2721 FEW005 BKN008
BECMG 2800/2803 24010KT
日本時間27日21時-28日09時:320度から4ノットの風
09-12時:風が変化
12時-29日03時:240度から10ノットの風


福岡空港
TAF RJFF 271106Z 2712/2818 15006KT 9999 FEW020
BECMG 2800/2803 32011KT
BECMG 2809/2812 12003KT
日本時間27日21時-28日09時:150度から6ノットの風
09-12時:風が変化
12-21時:320度から11ノットの風
21-24時:風が変化
29日00-03時:120度から3ノットの風


那覇空港
TAF ROAH 271106Z 2712/2818 13007KT 9999 FEW015 SCT025
TEMPO 2803/2809 4000 SHRA FEW008 BKN015 FEW020CB
日本時間27日21時-29日03時:130度から7ノットの風

但し、28日12-18時の間:時々

石垣空港
TAF ROIG 271108Z 2712/2818 17010KT 9999 FEW015 SCT025
TEMPO 2803/2809 3000 TSRA FEW008 BKN015 SCT020CB
TEMPO 2809/2812 4000 SHRA FEW008 BKN015 FEW020CB
日本時間27日21時-29日03時:170度から10ノットの風

但し、28日12-18時の間:時々
但し、28日18-21時の間:時々

マウイのカフルイ空港
PHOG 271124Z 2712/2812 06010KT P6SM VCSH SCT030 BKN060 BKN100
FM272000 06014G24KT P6SM SCT035 BKN060 BKN100
FM280500 07008KT P6SM VCSH SCT030 BKN060 AMD LTD TO VIS AND WIND TIL 271600
ハワイ時間27日02-10時:060度から10ノットの風
10-19時:060度から14ノット、突風24ノット
19時-28日02時:070度から8ノットの風


サイパン空港
PGSN 271124Z 2712/2812 VRB06KT P6SM VCSH SCT020 BKN040
マリアナ時間27日22時-28日22時:風向不定06ノットの風
コメント

8/26-8/28の航空気象通報

2018年08月26日 23時22分55秒 | お天気
羽田空港
TAF RJTT 261105Z 2612/2718 17008KT 9999 FEW025
BECMG 2612/2614 02006KT
BECMG 2700/2703 14012KT
TEMPO 2712/2715 -TSRA FEW010 FEW020CB BKN025
日本時間26日21時:170度から8ノットの風
21-23時:風が変化
23時-27日09時:020度から6ノットの風
09-12時:風が変化
12-21時:140度から12ノットの風
21-24時:風が変化
28日00-03時:140度から12ノットの風

但し、27日21-24時の間:時々

静岡空港
TAF RJNS 261105Z 2612/2718 27010KT 9999 FEW015
BECMG 2700/2703 21012KT
BECMG 2709/2712 27004KT
TEMPO 2715/2718 4000 BR FEW005 BKN008
日本時間26日21時-27日09時:270度から10ノットの風
09-12時:風が変化
12-18時:210度から12ノットの風
18-21時:風が変化
21時-28日03時:270度から4ノットの風

但し、28日00-03時の間:時々

福岡空港
TAF RJFF 261109Z 2612/2718 33005KT 9999 FEW025
BECMG 2613/2615 15009KT
BECMG 2703/2706 33011KT
BECMG 2709/2712 15005KT
日本時間26日21-22時:330度から5ノットの風
22-24時:風が変化
27日00-12時:150度から9ノットの風
12-15時:風が変化
15-18時:330度から11ノットの風
18-21時:風が変化
21時-28日03時:150度から5ノットの風


那覇空港
TAF ROAH 261108Z 2612/2718 15011KT 9999 FEW015 SCT020
日本時間26日21時-28日03時:150度から11ノットの風


石垣空港
TAF ROIG 261110Z 2612/2718 16015KT 9999 FEW010 BKN015
TEMPO 2612/2615 17018G28KT
TEMPO 2618/2700 3000 SHRA FEW008 BKN015 FEW020CB
TEMPO 2700/2706 17020G30KT 4000 SHRA FEW008 BKN015 FEW020CB
TEMPO 2706/2712 4000 SHRA FEW008 BKN015 FEW020CB
日本時間26日21時-28日03時:160度から15ノットの風
但し、26日21-24時の間:時々170度から18ノット、突風28ノット
但し、27日09-15時の間:時々170度から20ノット、突風30ノット

但し、27日03-21時の間:時々

マウイのカフルイ空港
PHOG 261120Z 2612/2712 05011KT 6SM -SHRA SCT015 BKN045 OVC060
TEMPO 2612/2616 3SM SHRA BR BKN035
FM261800 05016G23KT P6SM VCSH SCT020 SCT035 BKN060
FM270500 06012KT P6SM VCSH SCT030 BKN060 AMD LTD TO VIS AND WIND TIL 261600
ハワイ時間26日02-08時:050度から11ノットの風

08-19時:050度から16ノット、突風23ノット
19時-27日02時:060度から12ノットの風


サイパン空港
PGSN 261133Z 2612/2712 04008KT P6SM VCSH FEW020
FM262200 05011KT P6SM VCSH SCT020
マリアナ時間26日20時-27日08時:040度から8ノットの風
08-22時:050度から11ノットの風

コメント

8/25-8/27の航空気象通報

2018年08月25日 22時23分42秒 | お天気
羽田空港
TAF RJTT 251105Z 2512/2618 18008KT 9999 FEW015 SCT025
BECMG 2513/2515 32005KT
BECMG 2600/2603 16014KT
BECMG 2612/2615 34005KT
日本時間25日21-22時:180度から8ノットの風
22-24時:風が変化
26日00-09時:320度から5ノットの風
09-12時:風が変化
12-21時:160度から14ノットの風
21-24時:風が変化
27日00-03時:340度から5ノットの風


静岡空港
TAF RJNS 251107Z 2512/2618 25010KT 9999 FEW008 BKN012
TEMPO 2512/2518 FEW005 BKN008
TEMPO 2603/2609 23018G28KT
日本時間25日21時-27日03時:250度から10ノットの風
但し、26日12-18時の間:時々230度から18ノット、突風28ノット


福岡空港
TAF RJFF 251107Z 2512/2618 15007KT 9999 FEW030
BECMG 2606/2609 33010KT
BECMG 2612/2615 13004KT
日本時間25日21時-26日15時:150度から7ノットの風
15-18時:風が変化
18-21時:330度から10ノットの風
21-24時:風が変化
27日00-03時:130度から4ノットの風


那覇空港
TAF ROAH 251106Z 2512/2618 14012KT 9999 FEW010 BKN020
TEMPO 2515/2518 4000 SHRA FEW008 BKN015 FEW020CB
日本時間25日21時-27日03時:140度から12ノットの風

但し、26日00-03時の間:時々

石垣空港
TAF ROIG 251111Z 2512/2618 17012KT 9999 FEW010 BKN020
TEMPO 2606/2612 4000 SHRA FEW008 BKN015 FEW020CB
日本時間25日21時-27日03時:170度から12ノットの風

但し、26日15-21時の間:時々

マウイのカフルイ空港
PHOG 251121Z 2512/2612 07010G22KT P6SM -SHRA SCT015 OVC035
FM252000 10012G20KT P6SM -SHRA SCT020 BKN035
FM260600 06012G20KT P6SM -SHRA SCT015 OVC030
ハワイ時間25日02-10時:070度から10ノット、突風22ノット
10-20時:100度から12ノット、突風20ノット
20時-26日02時:060度から12ノット、突風20ノット


サイパン空港
PGSN 251121Z 2512/2612 05010KT P6SM VCSH SCT020 SCT050
マリアナ時間25日22時-26日22時:050度から10ノットの風
コメント